»·PEaware :: N973SE KSBP-KBFL

N973SE :: KSBP-KBFL

FLIGHT INFORMATION

Flight Status: Arrived
Operator: Privately registered:
United States
More flights under this callsign
Pilot: Stig E. (4778)
Aircraft: CESSNA 310
(C310)
More flights by this aircraft type
Origin: KSBP San Luis Co Regl
United States
Destination: KBFL Meadows
United States
More flights between these airports :: More routes between these airports
Route: HALDA FLW
File this flight plan on PilotEdge
Remarks:
Altitude:
(Current/Filed)
7,500ft
Speed:
(Current/Filed)
170kts
Departed: 21-Jan-19 03:04 AM
Arrived: 21-Jan-19 04:19 AM
Distance/Time
Traveled:
79nm/1:15
Distance/Time
To Go:
Arrived

Flight Plot

Page will automatically refresh every two minutes.

Flight plan parsing failed; only flown route is shown


Map Options




Map Legend


Flown Route
Filed Route
Departure Airport
Arrival Airport
Navaid (VOR, NDB)
Fix

Horizontal Profiles

Position Reports

Time Latitude Longitude Heading Altitude Ground
Speed
21-Jan-19 02:53 35.238865 -120.639635 86 215ft 0kts
21-Jan-19 02:54 35.238865 -120.639635 86 215ft 0kts
21-Jan-19 02:55 35.238865 -120.639635 86 215ft 0kts
21-Jan-19 02:56 35.238865 -120.639635 86 215ft 0kts
21-Jan-19 02:57 35.238746 -120.638951 148 215ft 0kts
21-Jan-19 02:58 35.238746 -120.638951 148 215ft 0kts
21-Jan-19 02:59 35.238566 -120.638878 174 215ft 6kts
21-Jan-19 03:00 35.235526 -120.635927 124 216ft 20kts
21-Jan-19 03:01 35.233138 -120.632333 231 216ft 0kts
21-Jan-19 03:02 35.233127 -120.633593 307 216ft 27kts
21-Jan-19 03:03 35.250824 -120.666348 304 977ft 152kts
21-Jan-19 03:04 35.234041 -120.696667 148 1999ft 162kts
21-Jan-19 03:05 35.214366 -120.647730 109 3019ft 164kts
21-Jan-19 03:06 35.196848 -120.595653 109 4026ft 167kts
21-Jan-19 03:07 35.176771 -120.543857 118 5032ft 173kts
21-Jan-19 03:08 35.159718 -120.489833 91 6053ft 173kts
21-Jan-19 03:09 35.153671 -120.429839 91 7081ft 180kts
21-Jan-19 03:10 35.146972 -120.365679 93 7510ft 200kts
21-Jan-19 03:11 35.139619 -120.296394 93 7508ft 207kts
21-Jan-19 03:12 35.132177 -120.226344 93 7505ft 208kts
21-Jan-19 03:13 35.124629 -120.155644 93 7498ft 208kts
21-Jan-19 03:14 35.117073 -120.085276 93 7495ft 208kts
21-Jan-19 03:15 35.109483 -120.014422 93 7492ft 209kts
21-Jan-19 03:16 35.103911 -119.962826 94 7489ft 209kts
21-Jan-19 03:17 35.103911 -119.962826 94 7489ft 209kts
21-Jan-19 03:18 35.103911 -119.962826 94 7489ft 209kts
21-Jan-19 03:19 35.103911 -119.962826 94 7489ft 209kts
21-Jan-19 03:20 35.103911 -119.962826 94 7489ft 209kts
21-Jan-19 03:21 35.103911 -119.962826 94 7489ft 209kts
21-Jan-19 03:22 35.103911 -119.962826 94 7489ft 209kts
21-Jan-19 03:23 35.103911 -119.962826 94 7489ft 209kts
21-Jan-19 03:24 35.103911 -119.962826 94 7489ft 209kts
21-Jan-19 03:25 35.103911 -119.962826 94 7489ft 209kts
21-Jan-19 03:26 35.103911 -119.962826 94 7489ft 209kts
21-Jan-19 03:27 35.103911 -119.962826 94 7489ft 209kts
21-Jan-19 03:28 35.103911 -119.962826 94 7489ft 209kts
21-Jan-19 03:29 35.103911 -119.962826 94 7489ft 209kts
21-Jan-19 03:30 35.103911 -119.962826 94 7489ft 209kts
21-Jan-19 03:31 35.103911 -119.962826 94 7489ft 209kts
21-Jan-19 03:32 35.103911 -119.962826 94 7489ft 209kts
21-Jan-19 03:33 35.103911 -119.962826 94 7489ft 209kts
21-Jan-19 03:34 35.103911 -119.962826 94 7489ft 209kts
21-Jan-19 03:35 35.103911 -119.962826 94 7489ft 209kts
21-Jan-19 03:36 35.103911 -119.962826 94 7489ft 209kts
21-Jan-19 03:37 35.103911 -119.962826 94 7489ft 209kts
21-Jan-19 03:38 35.103911 -119.962826 94 7489ft 209kts
21-Jan-19 03:39 35.103911 -119.962826 94 7489ft 209kts
21-Jan-19 03:40 35.103911 -119.962826 94 7489ft 209kts
21-Jan-19 03:41 35.103911 -119.962826 94 7489ft 209kts
21-Jan-19 03:42 35.103911 -119.962826 94 7489ft 209kts
21-Jan-19 03:43 35.103911 -119.962826 94 7489ft 209kts
21-Jan-19 03:44 35.103911 -119.962826 94 7489ft 209kts
21-Jan-19 03:45 35.103911 -119.962826 94 7489ft 209kts
21-Jan-19 03:46 35.103911 -119.962826 94 7489ft 209kts
21-Jan-19 03:47 35.097267 -119.901684 94 7487ft 209kts
21-Jan-19 03:48 35.106188 -119.835754 55 7487ft 198kts
21-Jan-19 03:49 35.132030 -119.776078 56 7484ft 199kts
21-Jan-19 03:50 35.156617 -119.714872 81 7469ft 207kts
21-Jan-19 03:51 35.143916 -119.644488 90 7476ft 209kts
21-Jan-19 03:52 35.148563 -119.573751 74 7471ft 206kts
21-Jan-19 03:53 35.159100 -119.505017 72 7466ft 205kts
21-Jan-19 03:54 35.171114 -119.437064 71 7466ft 202kts
21-Jan-19 03:55 35.183181 -119.369638 71 7467ft 202kts
21-Jan-19 03:56 35.195019 -119.303066 71 7457ft 191kts
21-Jan-19 03:57 35.206246 -119.240100 71 6746ft 186kts
21-Jan-19 03:58 35.217119 -119.178783 71 5946ft 182kts
21-Jan-19 03:59 35.227764 -119.118552 72 5145ft 178kts
21-Jan-19 04:00 35.237780 -119.061519 71 4759ft 157kts
21-Jan-19 04:01 35.246455 -119.012209 70 4762ft 141kts
21-Jan-19 04:02 35.254559 -118.966137 71 4781ft 133kts
21-Jan-19 04:03 35.262258 -118.922067 70 4782ft 131kts
21-Jan-19 04:04 35.269981 -118.878515 70 4782ft 130kts
21-Jan-19 04:05 35.277625 -118.835052 70 4782ft 130kts
21-Jan-19 04:06 35.285057 -118.791386 69 4781ft 131kts
21-Jan-19 04:07 35.295827 -118.750459 14 4766ft 113kts
21-Jan-19 04:08 35.307341 -118.777048 268 4773ft 121kts
21-Jan-19 04:09 35.300876 -118.816410 267 4780ft 111kts
21-Jan-19 04:10 35.294725 -118.852923 267 4782ft 107kts
21-Jan-19 04:11 35.299893 -118.887719 305 4359ft 112kts
21-Jan-19 04:13 35.318692 -118.917175 315 3670ft 108kts
21-Jan-19 04:14 35.339647 -118.943740 317 3053ft 108kts
21-Jan-19 04:15 35.361262 -118.969714 317 2447ft 109kts
21-Jan-19 04:16 35.382574 -118.995137 317 1857ft 104kts
21-Jan-19 04:17 35.403250 -119.019808 317 1295ft 102kts
21-Jan-19 04:18 35.422789 -119.043114 318 719ft 92kts
21-Jan-19 04:19 35.437439 -119.060366 339 492ft 30kts
21-Jan-19 04:20 35.435388 -119.055801 133 494ft 25kts
21-Jan-19 04:21 35.431456 -119.049336 110 498ft 16kts
21-Jan-19 04:22 35.430761 -119.047935 130 501ft 0kts
21-Jan-19 04:23 35.430761 -119.047935 130 501ft 0kts
21-Jan-19 04:24 35.430761 -119.047935 130 501ft 0kts
21-Jan-19 04:25 35.430761 -119.047935 130 501ft 0kts
21-Jan-19 04:26 35.430761 -119.047935 130 501ft 0kts
21-Jan-19 04:27 35.430761 -119.047935 130 501ft 0kts
21-Jan-19 04:28 35.430761 -119.047935 130 501ft 0kts
21-Jan-19 04:29 35.430761 -119.047935 130 501ft 0kts
21-Jan-19 04:30 35.430761 -119.047935 130 501ft 0kts
21-Jan-19 04:31 35.430761 -119.047935 130 501ft 0kts
21-Jan-19 04:32 35.429368 -119.046908 146 495ft 15kts
21-Jan-19 04:33 35.425702 -119.044711 243 480ft 9kts

Navigation Log

Ident Type
Flight plan parsing failed, navigation log unavailable